sensor_id;sensor_type;location;lat;lon;timestamp;temperature;humidity
14049;DHT22;7099;53.922;10.728;2024-01-30T00:02:58;2.70;99.90
14049;DHT22;7099;53.922;10.728;2024-01-30T00:07:04;2.70;99.90
14049;DHT22;7099;53.922;10.728;2024-01-30T00:11:09;2.70;99.90
14049;DHT22;7099;53.922;10.728;2024-01-30T00:15:15;2.70;99.90
14049;DHT22;7099;53.922;10.728;2024-01-30T00:19:20;2.70;99.90
14049;DHT22;7099;53.922;10.728;2024-01-30T00:23:26;2.60;99.90
14049;DHT22;7099;53.922;10.728;2024-01-30T00:27:32;2.60;99.90
14049;DHT22;7099;53.922;10.728;2024-01-30T00:31:38;2.60;99.90
14049;DHT22;7099;53.922;10.728;2024-01-30T00:35:46;2.60;99.90
14049;DHT22;7099;53.922;10.728;2024-01-30T00:39:52;2.60;99.90
14049;DHT22;7099;53.922;10.728;2024-01-30T00:43:57;2.60;99.90
14049;DHT22;7099;53.922;10.728;2024-01-30T00:48:03;2.60;99.90
14049;DHT22;7099;53.922;10.728;2024-01-30T00:52:09;2.60;99.90
14049;DHT22;7099;53.922;10.728;2024-01-30T00:56:15;2.60;99.90
14049;DHT22;7099;53.922;10.728;2024-01-30T01:00:23;2.70;99.90
14049;DHT22;7099;53.922;10.728;2024-01-30T01:04:34;2.70;99.90
14049;DHT22;7099;53.922;10.728;2024-01-30T01:08:40;2.70;99.90
14049;DHT22;7099;53.922;10.728;2024-01-30T01:12:45;2.70;99.90
14049;DHT22;7099;53.922;10.728;2024-01-30T01:16:51;2.80;99.90
14049;DHT22;7099;53.922;10.728;2024-01-30T01:20:57;2.80;99.90
14049;DHT22;7099;53.922;10.728;2024-01-30T01:25:03;2.80;99.90
14049;DHT22;7099;53.922;10.728;2024-01-30T01:29:09;2.90;99.90
14049;DHT22;7099;53.922;10.728;2024-01-30T01:33:17;2.90;99.90
14049;DHT22;7099;53.922;10.728;2024-01-30T01:37:23;2.90;99.90
14049;DHT22;7099;53.922;10.728;2024-01-30T01:41:32;2.90;99.90
14049;DHT22;7099;53.922;10.728;2024-01-30T01:45:38;3.00;99.90
14049;DHT22;7099;53.922;10.728;2024-01-30T01:49:44;2.90;99.90
14049;DHT22;7099;53.922;10.728;2024-01-30T01:53:49;2.90;99.90
14049;DHT22;7099;53.922;10.728;2024-01-30T01:57:56;2.90;99.90
14049;DHT22;7099;53.922;10.728;2024-01-30T02:02:02;2.90;99.90
14049;DHT22;7099;53.922;10.728;2024-01-30T02:06:09;2.90;99.90
14049;DHT22;7099;53.922;10.728;2024-01-30T02:10:15;2.90;99.90
14049;DHT22;7099;53.922;10.728;2024-01-30T02:14:20;2.90;99.90
14049;DHT22;7099;53.922;10.728;2024-01-30T02:18:26;2.90;99.90
14049;DHT22;7099;53.922;10.728;2024-01-30T02:22:33;2.90;99.90
14049;DHT22;7099;53.922;10.728;2024-01-30T02:26:40;2.90;99.90
14049;DHT22;7099;53.922;10.728;2024-01-30T02:30:46;2.90;99.90
14049;DHT22;7099;53.922;10.728;2024-01-30T02:34:52;2.90;99.90
14049;DHT22;7099;53.922;10.728;2024-01-30T02:38:57;2.90;99.90
14049;DHT22;7099;53.922;10.728;2024-01-30T02:43:03;2.90;99.90
14049;DHT22;7099;53.922;10.728;2024-01-30T02:47:10;2.90;99.90
14049;DHT22;7099;53.922;10.728;2024-01-30T02:51:17;2.80;99.90
14049;DHT22;7099;53.922;10.728;2024-01-30T02:55:22;2.90;99.90
14049;DHT22;7099;53.922;10.728;2024-01-30T02:59:28;2.90;99.90
14049;DHT22;7099;53.922;10.728;2024-01-30T03:03:33;2.80;99.90
14049;DHT22;7099;53.922;10.728;2024-01-30T03:07:41;2.80;99.90
14049;DHT22;7099;53.922;10.728;2024-01-30T03:11:46;2.80;99.90
14049;DHT22;7099;53.922;10.728;2024-01-30T03:15:52;2.70;99.90
14049;DHT22;7099;53.922;10.728;2024-01-30T03:19:58;2.70;99.90
14049;DHT22;7099;53.922;10.728;2024-01-30T03:24:04;2.70;99.90
14049;DHT22;7099;53.922;10.728;2024-01-30T03:28:10;2.70;99.90
14049;DHT22;7099;53.922;10.728;2024-01-30T03:32:15;2.70;99.90
14049;DHT22;7099;53.922;10.728;2024-01-30T03:36:21;2.70;99.90
14049;DHT22;7099;53.922;10.728;2024-01-30T03:40:26;2.70;99.90
14049;DHT22;7099;53.922;10.728;2024-01-30T03:44:32;2.70;99.90
14049;DHT22;7099;53.922;10.728;2024-01-30T03:48:38;2.70;99.90
14049;DHT22;7099;53.922;10.728;2024-01-30T03:52:44;2.70;99.90
14049;DHT22;7099;53.922;10.728;2024-01-30T03:56:50;2.60;99.90
14049;DHT22;7099;53.922;10.728;2024-01-30T04:00:55;2.50;99.90
14049;DHT22;7099;53.922;10.728;2024-01-30T04:05:01;2.50;99.90
14049;DHT22;7099;53.922;10.728;2024-01-30T04:09:07;2.40;99.90
14049;DHT22;7099;53.922;10.728;2024-01-30T04:13:13;2.40;99.90
14049;DHT22;7099;53.922;10.728;2024-01-30T04:17:18;2.40;99.90
14049;DHT22;7099;53.922;10.728;2024-01-30T04:21:24;2.30;99.90
14049;DHT22;7099;53.922;10.728;2024-01-30T04:25:29;2.30;99.90
14049;DHT22;7099;53.922;10.728;2024-01-30T04:29:35;2.30;99.90
14049;DHT22;7099;53.922;10.728;2024-01-30T04:33:40;2.30;99.90
14049;DHT22;7099;53.922;10.728;2024-01-30T04:37:46;2.30;99.90
14049;DHT22;7099;53.922;10.728;2024-01-30T04:41:52;2.20;99.90
14049;DHT22;7099;53.922;10.728;2024-01-30T04:45:57;2.10;99.90
14049;DHT22;7099;53.922;10.728;2024-01-30T04:50:03;2.10;99.90
14049;DHT22;7099;53.922;10.728;2024-01-30T04:54:10;2.10;99.90
14049;DHT22;7099;53.922;10.728;2024-01-30T04:58:16;2.10;99.90
14049;DHT22;7099;53.922;10.728;2024-01-30T05:02:21;2.00;99.90
14049;DHT22;7099;53.922;10.728;2024-01-30T05:06:27;2.10;99.90
14049;DHT22;7099;53.922;10.728;2024-01-30T05:10:33;2.00;99.90
14049;DHT22;7099;53.922;10.728;2024-01-30T05:14:39;2.00;99.90
14049;DHT22;7099;53.922;10.728;2024-01-30T05:18:45;2.00;99.90
14049;DHT22;7099;53.922;10.728;2024-01-30T05:22:50;1.90;99.90
14049;DHT22;7099;53.922;10.728;2024-01-30T05:26:56;1.90;99.90
14049;DHT22;7099;53.922;10.728;2024-01-30T05:31:02;1.90;99.90
14049;DHT22;7099;53.922;10.728;2024-01-30T05:35:07;1.90;99.90
14049;DHT22;7099;53.922;10.728;2024-01-30T05:39:13;1.90;99.90
14049;DHT22;7099;53.922;10.728;2024-01-30T05:43:18;1.80;99.90
14049;DHT22;7099;53.922;10.728;2024-01-30T05:47:24;1.80;99.90
14049;DHT22;7099;53.922;10.728;2024-01-30T05:51:30;1.80;99.90
14049;DHT22;7099;53.922;10.728;2024-01-30T05:55:36;1.80;99.90
14049;DHT22;7099;53.922;10.728;2024-01-30T05:59:42;1.70;99.90
14049;DHT22;7099;53.922;10.728;2024-01-30T06:03:49;1.70;99.90
14049;DHT22;7099;53.922;10.728;2024-01-30T06:07:54;1.60;99.90
14049;DHT22;7099;53.922;10.728;2024-01-30T06:12:00;1.70;99.90
14049;DHT22;7099;53.922;10.728;2024-01-30T06:16:09;1.60;99.90
14049;DHT22;7099;53.922;10.728;2024-01-30T06:20:16;1.60;99.90
14049;DHT22;7099;53.922;10.728;2024-01-30T06:24:23;1.60;99.90
14049;DHT22;7099;53.922;10.728;2024-01-30T06:28:28;1.60;99.90
14049;DHT22;7099;53.922;10.728;2024-01-30T06:32:35;1.60;99.90
14049;DHT22;7099;53.922;10.728;2024-01-30T06:36:41;1.60;99.90
14049;DHT22;7099;53.922;10.728;2024-01-30T06:40:47;1.60;99.90
14049;DHT22;7099;53.922;10.728;2024-01-30T06:44:52;1.60;99.90
14049;DHT22;7099;53.922;10.728;2024-01-30T06:48:58;1.60;99.90
14049;DHT22;7099;53.922;10.728;2024-01-30T06:53:04;1.60;99.90
14049;DHT22;7099;53.922;10.728;2024-01-30T06:57:09;1.60;99.90
14049;DHT22;7099;53.922;10.728;2024-01-30T07:01:17;1.60;99.90
14049;DHT22;7099;53.922;10.728;2024-01-30T07:05:23;1.70;99.90
14049;DHT22;7099;53.922;10.728;2024-01-30T07:09:28;1.70;99.90
14049;DHT22;7099;53.922;10.728;2024-01-30T07:13:34;1.70;99.90
14049;DHT22;7099;53.922;10.728;2024-01-30T07:17:40;1.80;99.90
14049;DHT22;7099;53.922;10.728;2024-01-30T07:21:46;1.80;99.90
14049;DHT22;7099;53.922;10.728;2024-01-30T07:25:52;1.80;99.90
14049;DHT22;7099;53.922;10.728;2024-01-30T07:29:57;1.80;99.90
14049;DHT22;7099;53.922;10.728;2024-01-30T07:34:03;1.80;99.90
14049;DHT22;7099;53.922;10.728;2024-01-30T07:38:08;1.90;99.90
14049;DHT22;7099;53.922;10.728;2024-01-30T07:42:14;1.90;99.90
14049;DHT22;7099;53.922;10.728;2024-01-30T07:46:20;1.90;99.90
14049;DHT22;7099;53.922;10.728;2024-01-30T07:50:26;2.00;99.90
14049;DHT22;7099;53.922;10.728;2024-01-30T07:54:32;2.00;99.90
14049;DHT22;7099;53.922;10.728;2024-01-30T07:58:44;2.00;99.90
14049;DHT22;7099;53.922;10.728;2024-01-30T08:02:53;2.00;99.90
14049;DHT22;7099;53.922;10.728;2024-01-30T08:07:00;2.10;99.90
14049;DHT22;7099;53.922;10.728;2024-01-30T08:11:06;2.20;99.90
14049;DHT22;7099;53.922;10.728;2024-01-30T08:15:12;2.30;99.90
14049;DHT22;7099;53.922;10.728;2024-01-30T08:19:18;2.30;99.90
14049;DHT22;7099;53.922;10.728;2024-01-30T08:23:24;2.40;99.90
14049;DHT22;7099;53.922;10.728;2024-01-30T08:27:30;2.50;99.90
14049;DHT22;7099;53.922;10.728;2024-01-30T08:31:35;2.50;99.90
14049;DHT22;7099;53.922;10.728;2024-01-30T08:35:41;2.60;99.90
14049;DHT22;7099;53.922;10.728;2024-01-30T08:39:47;2.60;99.90
14049;DHT22;7099;53.922;10.728;2024-01-30T08:43:53;2.70;99.90
14049;DHT22;7099;53.922;10.728;2024-01-30T08:47:59;2.80;99.90
14049;DHT22;7099;53.922;10.728;2024-01-30T08:52:05;2.90;99.90
14049;DHT22;7099;53.922;10.728;2024-01-30T08:56:12;3.00;99.90
14049;DHT22;7099;53.922;10.728;2024-01-30T09:00:18;3.10;99.90
14049;DHT22;7099;53.922;10.728;2024-01-30T09:04:24;3.20;99.90
14049;DHT22;7099;53.922;10.728;2024-01-30T09:08:31;3.30;99.90
14049;DHT22;7099;53.922;10.728;2024-01-30T09:12:36;3.40;99.90
14049;DHT22;7099;53.922;10.728;2024-01-30T09:16:43;3.60;99.90
14049;DHT22;7099;53.922;10.728;2024-01-30T09:20:48;3.60;99.90
14049;DHT22;7099;53.922;10.728;2024-01-30T09:24:54;3.80;99.90
14049;DHT22;7099;53.922;10.728;2024-01-30T09:29:02;3.90;99.90
14049;DHT22;7099;53.922;10.728;2024-01-30T09:33:08;4.00;99.90
14049;DHT22;7099;53.922;10.728;2024-01-30T09:37:14;4.20;99.90
14049;DHT22;7099;53.922;10.728;2024-01-30T09:41:24;4.40;99.90
14049;DHT22;7099;53.922;10.728;2024-01-30T09:45:31;4.50;99.90
14049;DHT22;7099;53.922;10.728;2024-01-30T09:49:38;4.70;99.90
14049;DHT22;7099;53.922;10.728;2024-01-30T09:53:44;4.90;99.90
14049;DHT22;7099;53.922;10.728;2024-01-30T09:57:50;5.10;99.90
14049;DHT22;7099;53.922;10.728;2024-01-30T10:01:55;5.20;99.90
14049;DHT22;7099;53.922;10.728;2024-01-30T10:06:02;5.40;99.90
14049;DHT22;7099;53.922;10.728;2024-01-30T10:10:07;5.60;99.90
14049;DHT22;7099;53.922;10.728;2024-01-30T10:14:13;5.70;99.90
14049;DHT22;7099;53.922;10.728;2024-01-30T10:18:18;5.80;99.90
14049;DHT22;7099;53.922;10.728;2024-01-30T10:22:24;6.00;99.90
14049;DHT22;7099;53.922;10.728;2024-01-30T10:26:30;6.10;99.90
14049;DHT22;7099;53.922;10.728;2024-01-30T10:30:39;6.30;99.90
14049;DHT22;7099;53.922;10.728;2024-01-30T10:34:44;6.30;99.90
14049;DHT22;7099;53.922;10.728;2024-01-30T10:38:51;6.50;99.90
14049;DHT22;7099;53.922;10.728;2024-01-30T10:42:56;6.60;99.90
14049;DHT22;7099;53.922;10.728;2024-01-30T10:47:06;6.70;99.90
14049;DHT22;7099;53.922;10.728;2024-01-30T10:51:13;6.80;99.90
14049;DHT22;7099;53.922;10.728;2024-01-30T10:55:19;6.90;99.90
14049;DHT22;7099;53.922;10.728;2024-01-30T10:59:26;7.10;99.90
14049;DHT22;7099;53.922;10.728;2024-01-30T11:03:33;7.10;99.90
14049;DHT22;7099;53.922;10.728;2024-01-30T11:07:41;7.20;99.90
14049;DHT22;7099;53.922;10.728;2024-01-30T11:11:56;7.30;99.90
14049;DHT22;7099;53.922;10.728;2024-01-30T11:16:06;7.40;99.90
14049;DHT22;7099;53.922;10.728;2024-01-30T11:20:15;7.60;99.90
14049;DHT22;7099;53.922;10.728;2024-01-30T11:24:25;7.70;99.90
14049;DHT22;7099;53.922;10.728;2024-01-30T11:28:35;7.80;99.90
14049;DHT22;7099;53.922;10.728;2024-01-30T11:32:43;7.90;99.90
14049;DHT22;7099;53.922;10.728;2024-01-30T11:36:51;8.00;99.90
14049;DHT22;7099;53.922;10.728;2024-01-30T11:41:00;8.10;99.90
14049;DHT22;7099;53.922;10.728;2024-01-30T11:45:06;8.20;99.90
14049;DHT22;7099;53.922;10.728;2024-01-30T11:49:12;8.20;99.90
14049;DHT22;7099;53.922;10.728;2024-01-30T11:53:17;8.30;99.90
14049;DHT22;7099;53.922;10.728;2024-01-30T11:57:22;8.40;99.90
14049;DHT22;7099;53.922;10.728;2024-01-30T12:01:28;8.40;99.90
14049;DHT22;7099;53.922;10.728;2024-01-30T12:05:37;8.50;99.90
14049;DHT22;7099;53.922;10.728;2024-01-30T12:09:53;8.50;99.90
14049;DHT22;7099;53.922;10.728;2024-01-30T12:13:59;8.60;99.90
14049;DHT22;7099;53.922;10.728;2024-01-30T12:18:06;8.60;99.90
14049;DHT22;7099;53.922;10.728;2024-01-30T12:22:12;8.60;99.90
14049;DHT22;7099;53.922;10.728;2024-01-30T12:26:18;8.70;99.90
14049;DHT22;7099;53.922;10.728;2024-01-30T12:30:24;8.70;99.90
14049;DHT22;7099;53.922;10.728;2024-01-30T12:34:29;8.80;99.90
14049;DHT22;7099;53.922;10.728;2024-01-30T12:38:40;8.80;99.90
14049;DHT22;7099;53.922;10.728;2024-01-30T12:42:48;8.80;99.90
14049;DHT22;7099;53.922;10.728;2024-01-30T12:46:54;8.90;99.90
14049;DHT22;7099;53.922;10.728;2024-01-30T12:51:00;8.90;99.90
14049;DHT22;7099;53.922;10.728;2024-01-30T12:55:05;9.00;99.90
14049;DHT22;7099;53.922;10.728;2024-01-30T12:59:11;9.00;99.90
14049;DHT22;7099;53.922;10.728;2024-01-30T13:03:16;9.00;99.90
14049;DHT22;7099;53.922;10.728;2024-01-30T13:07:22;9.10;99.90
14049;DHT22;7099;53.922;10.728;2024-01-30T13:11:28;9.10;99.90
14049;DHT22;7099;53.922;10.728;2024-01-30T13:15:33;9.10;99.90
14049;DHT22;7099;53.922;10.728;2024-01-30T13:19:39;9.20;99.90
14049;DHT22;7099;53.922;10.728;2024-01-30T13:23:44;9.20;99.90
14049;DHT22;7099;53.922;10.728;2024-01-30T13:27:50;9.20;99.90
14049;DHT22;7099;53.922;10.728;2024-01-30T13:31:56;9.20;99.90
14049;DHT22;7099;53.922;10.728;2024-01-30T13:36:02;9.30;99.90
14049;DHT22;7099;53.922;10.728;2024-01-30T13:40:08;9.30;99.90
14049;DHT22;7099;53.922;10.728;2024-01-30T13:44:18;9.30;99.90
14049;DHT22;7099;53.922;10.728;2024-01-30T13:48:24;9.30;99.90
14049;DHT22;7099;53.922;10.728;2024-01-30T13:52:29;9.30;99.90
14049;DHT22;7099;53.922;10.728;2024-01-30T13:56:42;9.40;99.90
14049;DHT22;7099;53.922;10.728;2024-01-30T14:00:48;9.40;99.90
14049;DHT22;7099;53.922;10.728;2024-01-30T14:04:54;9.40;99.90
14049;DHT22;7099;53.922;10.728;2024-01-30T14:09:00;9.50;99.90
14049;DHT22;7099;53.922;10.728;2024-01-30T14:13:12;9.50;99.90
14049;DHT22;7099;53.922;10.728;2024-01-30T14:17:18;9.50;99.90
14049;DHT22;7099;53.922;10.728;2024-01-30T14:21:24;9.60;99.90
14049;DHT22;7099;53.922;10.728;2024-01-30T14:25:30;9.60;99.90
14049;DHT22;7099;53.922;10.728;2024-01-30T14:29:35;9.60;99.90
14049;DHT22;7099;53.922;10.728;2024-01-30T14:33:41;9.60;99.90
14049;DHT22;7099;53.922;10.728;2024-01-30T14:37:46;9.70;99.90
14049;DHT22;7099;53.922;10.728;2024-01-30T14:41:52;9.70;99.90
14049;DHT22;7099;53.922;10.728;2024-01-30T14:46:01;9.70;99.90
14049;DHT22;7099;53.922;10.728;2024-01-30T14:50:10;9.70;99.90
14049;DHT22;7099;53.922;10.728;2024-01-30T14:54:15;9.70;99.90
14049;DHT22;7099;53.922;10.728;2024-01-30T14:58:21;9.80;99.90
14049;DHT22;7099;53.922;10.728;2024-01-30T15:02:27;9.80;99.90
14049;DHT22;7099;53.922;10.728;2024-01-30T15:06:33;9.80;99.90
14049;DHT22;7099;53.922;10.728;2024-01-30T15:10:39;9.80;99.90
14049;DHT22;7099;53.922;10.728;2024-01-30T15:14:45;9.80;99.90
14049;DHT22;7099;53.922;10.728;2024-01-30T15:18:55;9.90;99.90
14049;DHT22;7099;53.922;10.728;2024-01-30T15:23:05;9.90;99.90
14049;DHT22;7099;53.922;10.728;2024-01-30T15:27:11;9.90;99.90
14049;DHT22;7099;53.922;10.728;2024-01-30T15:31:19;9.80;99.90
14049;DHT22;7099;53.922;10.728;2024-01-30T15:35:25;9.90;99.90
14049;DHT22;7099;53.922;10.728;2024-01-30T15:39:34;9.80;99.90
14049;DHT22;7099;53.922;10.728;2024-01-30T15:43:39;9.80;99.90
14049;DHT22;7099;53.922;10.728;2024-01-30T15:47:45;9.90;99.90
14049;DHT22;7099;53.922;10.728;2024-01-30T15:51:51;9.90;99.90
14049;DHT22;7099;53.922;10.728;2024-01-30T15:55:56;9.80;99.90
14049;DHT22;7099;53.922;10.728;2024-01-30T16:00:05;9.80;99.90
14049;DHT22;7099;53.922;10.728;2024-01-30T16:04:12;9.80;99.90
14049;DHT22;7099;53.922;10.728;2024-01-30T16:08:20;9.80;99.90
14049;DHT22;7099;53.922;10.728;2024-01-30T16:12:26;9.80;99.90
14049;DHT22;7099;53.922;10.728;2024-01-30T16:16:32;9.80;99.90
14049;DHT22;7099;53.922;10.728;2024-01-30T16:20:39;9.80;99.90
14049;DHT22;7099;53.922;10.728;2024-01-30T16:24:45;9.80;99.90
14049;DHT22;7099;53.922;10.728;2024-01-30T16:28:52;9.90;99.90
14049;DHT22;7099;53.922;10.728;2024-01-30T16:32:57;9.80;99.90
14049;DHT22;7099;53.922;10.728;2024-01-30T16:37:05;9.80;99.90
14049;DHT22;7099;53.922;10.728;2024-01-30T16:41:11;9.80;99.90
14049;DHT22;7099;53.922;10.728;2024-01-30T16:45:17;9.80;99.90
14049;DHT22;7099;53.922;10.728;2024-01-30T16:49:31;9.80;99.90
14049;DHT22;7099;53.922;10.728;2024-01-30T16:53:37;9.70;99.90
14049;DHT22;7099;53.922;10.728;2024-01-30T16:57:43;9.70;99.90
14049;DHT22;7099;53.922;10.728;2024-01-30T17:01:48;9.80;99.90
14049;DHT22;7099;53.922;10.728;2024-01-30T17:05:54;9.70;99.90
14049;DHT22;7099;53.922;10.728;2024-01-30T17:10:03;9.80;99.90
14049;DHT22;7099;53.922;10.728;2024-01-30T17:14:12;9.70;99.90
14049;DHT22;7099;53.922;10.728;2024-01-30T17:18:19;9.70;99.90
14049;DHT22;7099;53.922;10.728;2024-01-30T17:22:25;9.70;99.90
14049;DHT22;7099;53.922;10.728;2024-01-30T17:26:31;9.70;99.90
14049;DHT22;7099;53.922;10.728;2024-01-30T17:30:37;9.70;99.90
14049;DHT22;7099;53.922;10.728;2024-01-30T17:34:42;9.70;99.90
14049;DHT22;7099;53.922;10.728;2024-01-30T17:38:48;9.70;99.90
14049;DHT22;7099;53.922;10.728;2024-01-30T17:42:54;9.70;99.90
14049;DHT22;7099;53.922;10.728;2024-01-30T17:47:00;9.70;99.90
14049;DHT22;7099;53.922;10.728;2024-01-30T17:51:06;9.80;99.90
14049;DHT22;7099;53.922;10.728;2024-01-30T17:55:11;9.80;99.90
14049;DHT22;7099;53.922;10.728;2024-01-30T17:59:17;9.80;99.90
14049;DHT22;7099;53.922;10.728;2024-01-30T18:03:26;9.80;99.90
14049;DHT22;7099;53.922;10.728;2024-01-30T18:07:32;9.80;99.90
14049;DHT22;7099;53.922;10.728;2024-01-30T18:11:38;9.80;99.90
14049;DHT22;7099;53.922;10.728;2024-01-30T18:15:44;9.80;99.90
14049;DHT22;7099;53.922;10.728;2024-01-30T18:19:49;9.80;99.90
14049;DHT22;7099;53.922;10.728;2024-01-30T18:23:55;9.90;99.90
14049;DHT22;7099;53.922;10.728;2024-01-30T18:28:01;9.80;99.90
14049;DHT22;7099;53.922;10.728;2024-01-30T18:32:07;9.90;99.90
14049;DHT22;7099;53.922;10.728;2024-01-30T18:36:13;9.90;99.90
14049;DHT22;7099;53.922;10.728;2024-01-30T18:40:19;9.90;99.90
14049;DHT22;7099;53.922;10.728;2024-01-30T18:44:24;10.00;99.90
14049;DHT22;7099;53.922;10.728;2024-01-30T18:48:32;10.00;99.90
14049;DHT22;7099;53.922;10.728;2024-01-30T18:52:39;10.00;99.90
14049;DHT22;7099;53.922;10.728;2024-01-30T18:56:44;10.00;99.90
14049;DHT22;7099;53.922;10.728;2024-01-30T19:00:50;10.10;99.90
14049;DHT22;7099;53.922;10.728;2024-01-30T19:04:55;10.10;99.90
14049;DHT22;7099;53.922;10.728;2024-01-30T19:09:04;10.10;99.90
14049;DHT22;7099;53.922;10.728;2024-01-30T19:13:13;10.10;99.90
14049;DHT22;7099;53.922;10.728;2024-01-30T19:17:20;10.10;99.90
14049;DHT22;7099;53.922;10.728;2024-01-30T19:21:25;10.10;99.90
14049;DHT22;7099;53.922;10.728;2024-01-30T19:25:30;10.10;99.90
14049;DHT22;7099;53.922;10.728;2024-01-30T19:29:37;10.10;99.90
14049;DHT22;7099;53.922;10.728;2024-01-30T19:33:47;10.10;99.90
14049;DHT22;7099;53.922;10.728;2024-01-30T19:37:52;10.20;99.90
14049;DHT22;7099;53.922;10.728;2024-01-30T19:42:01;10.10;99.90
14049;DHT22;7099;53.922;10.728;2024-01-30T19:46:10;10.10;99.90
14049;DHT22;7099;53.922;10.728;2024-01-30T19:50:16;10.10;99.90
14049;DHT22;7099;53.922;10.728;2024-01-30T19:54:22;10.10;99.90
14049;DHT22;7099;53.922;10.728;2024-01-30T19:58:32;10.10;99.90
14049;DHT22;7099;53.922;10.728;2024-01-30T20:02:42;10.10;99.90
14049;DHT22;7099;53.922;10.728;2024-01-30T20:06:48;10.20;99.90
14049;DHT22;7099;53.922;10.728;2024-01-30T20:10:54;10.10;99.90
14049;DHT22;7099;53.922;10.728;2024-01-30T20:14:59;10.10;99.90
14049;DHT22;7099;53.922;10.728;2024-01-30T20:19:05;10.10;99.90
14049;DHT22;7099;53.922;10.728;2024-01-30T20:23:14;10.10;99.90
14049;DHT22;7099;53.922;10.728;2024-01-30T20:27:24;10.00;99.90
14049;DHT22;7099;53.922;10.728;2024-01-30T20:31:32;10.00;99.90
14049;DHT22;7099;53.922;10.728;2024-01-30T20:35:38;10.00;99.90
14049;DHT22;7099;53.922;10.728;2024-01-30T20:39:43;10.00;99.90
14049;DHT22;7099;53.922;10.728;2024-01-30T20:43:49;10.00;99.90
14049;DHT22;7099;53.922;10.728;2024-01-30T20:47:54;10.00;99.90
14049;DHT22;7099;53.922;10.728;2024-01-30T20:52:01;10.00;99.90
14049;DHT22;7099;53.922;10.728;2024-01-30T20:56:06;10.00;99.90
14049;DHT22;7099;53.922;10.728;2024-01-30T21:00:13;9.90;99.90
14049;DHT22;7099;53.922;10.728;2024-01-30T21:04:20;9.90;99.90
14049;DHT22;7099;53.922;10.728;2024-01-30T21:08:28;9.90;99.90
14049;DHT22;7099;53.922;10.728;2024-01-30T21:12:34;9.90;99.90
14049;DHT22;7099;53.922;10.728;2024-01-30T21:16:40;9.90;99.90
14049;DHT22;7099;53.922;10.728;2024-01-30T21:20:46;9.90;99.90
14049;DHT22;7099;53.922;10.728;2024-01-30T21:24:55;9.80;99.90
14049;DHT22;7099;53.922;10.728;2024-01-30T21:29:01;9.80;99.90
14049;DHT22;7099;53.922;10.728;2024-01-30T21:33:07;9.80;99.90
14049;DHT22;7099;53.922;10.728;2024-01-30T21:37:13;9.80;99.90
14049;DHT22;7099;53.922;10.728;2024-01-30T21:41:19;9.80;99.90
14049;DHT22;7099;53.922;10.728;2024-01-30T21:45:26;9.80;99.90
14049;DHT22;7099;53.922;10.728;2024-01-30T21:49:32;9.70;99.90
14049;DHT22;7099;53.922;10.728;2024-01-30T21:53:38;9.70;99.90
14049;DHT22;7099;53.922;10.728;2024-01-30T21:57:43;9.60;99.90
14049;DHT22;7099;53.922;10.728;2024-01-30T22:01:49;9.60;99.90
14049;DHT22;7099;53.922;10.728;2024-01-30T22:05:55;9.50;99.90
14049;DHT22;7099;53.922;10.728;2024-01-30T22:10:00;9.50;99.90
14049;DHT22;7099;53.922;10.728;2024-01-30T22:14:08;9.40;99.90
14049;DHT22;7099;53.922;10.728;2024-01-30T22:18:14;9.40;99.90
14049;DHT22;7099;53.922;10.728;2024-01-30T22:22:21;9.30;99.90
14049;DHT22;7099;53.922;10.728;2024-01-30T22:26:26;9.20;99.90
14049;DHT22;7099;53.922;10.728;2024-01-30T22:30:32;9.20;99.90
14049;DHT22;7099;53.922;10.728;2024-01-30T22:34:37;9.10;99.90
14049;DHT22;7099;53.922;10.728;2024-01-30T22:38:43;9.10;99.90
14049;DHT22;7099;53.922;10.728;2024-01-30T22:42:48;9.00;99.90
14049;DHT22;7099;53.922;10.728;2024-01-30T22:46:54;8.90;99.90
14049;DHT22;7099;53.922;10.728;2024-01-30T22:51:00;8.80;99.90
14049;DHT22;7099;53.922;10.728;2024-01-30T22:55:06;8.80;99.90
14049;DHT22;7099;53.922;10.728;2024-01-30T22:59:12;8.70;99.90
14049;DHT22;7099;53.922;10.728;2024-01-30T23:03:18;8.70;99.90
14049;DHT22;7099;53.922;10.728;2024-01-30T23:07:24;8.70;99.90
14049;DHT22;7099;53.922;10.728;2024-01-30T23:11:32;8.60;99.90
14049;DHT22;7099;53.922;10.728;2024-01-30T23:15:38;8.50;99.90
14049;DHT22;7099;53.922;10.728;2024-01-30T23:19:43;8.50;99.90
14049;DHT22;7099;53.922;10.728;2024-01-30T23:23:49;8.40;99.90
14049;DHT22;7099;53.922;10.728;2024-01-30T23:27:54;8.30;99.90
14049;DHT22;7099;53.922;10.728;2024-01-30T23:32:00;8.30;99.90
14049;DHT22;7099;53.922;10.728;2024-01-30T23:36:06;8.20;99.90
14049;DHT22;7099;53.922;10.728;2024-01-30T23:40:12;8.10;99.90
14049;DHT22;7099;53.922;10.728;2024-01-30T23:44:18;8.10;99.90
14049;DHT22;7099;53.922;10.728;2024-01-30T23:48:24;8.10;99.90
14049;DHT22;7099;53.922;10.728;2024-01-30T23:52:30;8.00;99.90
14049;DHT22;7099;53.922;10.728;2024-01-30T23:56:39;7.90;99.90
